createdAt,value
2019-02-05T00:01:40.318Z,60.02
2019-02-05T00:04:08.946Z,59.55
2019-02-05T00:06:37.631Z,58.64
2019-02-05T00:09:10.535Z,56.08
2019-02-05T00:11:39.120Z,58.44
2019-02-05T00:14:07.751Z,59.40
2019-02-05T00:16:36.467Z,58.63
2019-02-05T00:19:05.374Z,56.94
2019-02-05T00:21:34.185Z,59.00
2019-02-05T00:24:02.934Z,57.51
2019-02-05T00:26:31.571Z,57.51
2019-02-05T00:29:00.136Z,55.76
2019-02-05T00:31:28.692Z,58.17
2019-02-05T00:33:57.254Z,59.06
2019-02-05T00:36:25.836Z,56.99
2019-02-05T00:38:54.478Z,58.64
2019-02-05T00:41:23.172Z,60.45
2019-02-05T00:43:51.752Z,61.63
2019-02-05T00:46:20.376Z,61.49
2019-02-05T00:48:49.342Z,62.26
2019-02-05T00:51:18.136Z,59.62
2019-02-05T00:53:46.802Z,59.89
2019-02-05T00:56:17.639Z,56.78
2019-02-05T00:58:45.943Z,57.52
2019-02-05T01:01:15.518Z,58.55
2019-02-05T01:03:44.453Z,57.58
2019-02-05T01:06:13.111Z,56.54
2019-02-05T01:08:41.669Z,58.65
2019-02-05T01:11:10.232Z,57.76
2019-02-05T01:13:38.790Z,56.08
2019-02-05T01:16:07.446Z,56.16
2019-02-05T01:18:36.293Z,55.16
2019-02-05T01:21:05.024Z,59.93
2019-02-05T01:23:33.586Z,59.18
2019-02-05T01:26:02.205Z,58.99
2019-02-05T01:28:31.014Z,60.80
2019-02-05T01:30:59.589Z,59.69
2019-02-05T01:33:28.358Z,60.11
2019-02-05T01:35:56.941Z,61.15
2019-02-05T01:38:25.524Z,60.94
2019-02-05T01:40:54.106Z,61.91
2019-02-05T01:43:22.690Z,62.17
2019-02-05T01:45:51.263Z,63.53
2019-02-05T01:48:19.831Z,62.76
2019-02-05T01:50:48.641Z,62.07
2019-02-05T01:53:17.224Z,61.22
2019-02-05T01:55:45.871Z,61.00
2019-02-05T01:58:14.482Z,61.55
2019-02-05T02:00:43.046Z,61.85
2019-02-05T02:03:11.739Z,62.48
2019-02-05T02:05:40.586Z,63.03
2019-02-05T02:08:09.340Z,63.56
2019-02-05T02:10:37.867Z,64.61
2019-02-05T02:13:06.502Z,64.59
2019-02-05T02:15:35.141Z,64.11
2019-02-05T02:18:03.874Z,64.30
2019-02-05T02:20:32.439Z,62.97
2019-02-05T02:23:00.994Z,63.08
2019-02-05T02:25:29.570Z,61.58
2019-02-05T02:27:58.226Z,62.66
2019-02-05T02:30:29.530Z,64.23
2019-02-05T02:32:58.395Z,64.51
2019-02-05T02:35:26.956Z,64.02
2019-02-05T02:37:55.700Z,64.00
2019-02-05T02:40:24.266Z,63.84
2019-02-05T02:42:52.993Z,65.15
2019-02-05T02:45:21.634Z,63.62
2019-02-05T02:47:50.539Z,63.82
2019-02-05T02:50:19.205Z,64.70
2019-02-05T02:52:48.162Z,64.37
2019-02-05T02:55:16.803Z,64.51
2019-02-05T02:57:45.438Z,63.50
2019-02-05T03:00:16.249Z,62.52
2019-02-05T03:02:45.287Z,62.70
2019-02-05T03:05:15.680Z,63.18
2019-02-05T03:07:44.792Z,61.57
2019-02-05T03:10:16.724Z,60.97
2019-02-05T03:12:45.289Z,62.03
2019-02-05T03:15:13.996Z,61.09
2019-02-05T03:17:42.582Z,60.30
2019-02-05T03:20:11.991Z,63.62
2019-02-05T03:22:40.562Z,60.64
2019-02-05T03:25:10.725Z,63.43
2019-02-05T03:27:39.297Z,61.58
2019-02-05T03:30:10.545Z,62.19
2019-02-05T03:32:39.367Z,63.57
2019-02-05T03:35:08.025Z,63.59
2019-02-05T03:37:36.578Z,63.20
2019-02-05T03:40:11.474Z,63.53
2019-02-05T03:42:40.040Z,61.33
2019-02-05T03:45:09.004Z,61.96
2019-02-05T03:47:37.641Z,60.70
2019-02-05T03:50:06.353Z,61.75
2019-02-05T03:52:42.811Z,63.64
2019-02-05T03:55:37.206Z,61.70
2019-02-05T03:58:32.338Z,58.95
2019-02-05T04:01:39.713Z,57.74
2019-02-05T04:04:33.416Z,57.79
2019-02-05T04:07:33.609Z,57.70
2019-02-05T04:10:40.027Z,58.38
2019-02-05T04:13:26.515Z,58.34
2019-02-05T04:16:25.431Z,58.21
2019-02-05T04:19:42.931Z,57.97
2019-02-05T04:22:48.793Z,59.04
2019-02-05T04:25:58.391Z,59.67
2019-02-05T04:29:10.375Z,58.66
2019-02-05T04:32:01.379Z,59.08
2019-02-05T04:34:43.832Z,57.92
2019-02-05T04:37:42.601Z,57.44
2019-02-05T04:40:36.258Z,59.64
2019-02-05T04:43:37.245Z,59.98
2019-02-05T04:46:42.772Z,60.99
2019-02-05T04:49:30.250Z,58.82
2019-02-05T04:52:31.544Z,59.16
2019-02-05T04:55:28.202Z,61.06
2019-02-05T04:58:38.103Z,60.76
2019-02-05T05:01:31.049Z,62.65
2019-02-05T05:04:25.295Z,59.42
2019-02-05T05:07:46.957Z,58.52
2019-02-05T05:10:15.872Z,57.96
2019-02-05T05:12:44.440Z,59.73
2019-02-05T05:15:13.110Z,62.58
2019-02-05T05:17:41.784Z,63.98
2019-02-05T05:20:12.215Z,65.88
2019-02-05T05:22:40.839Z,65.97
2019-02-05T05:25:10.715Z,65.57
2019-02-05T05:27:39.342Z,64.22
2019-02-05T05:30:12.015Z,65.53
2019-02-05T05:32:40.567Z,64.27
2019-02-05T05:35:09.872Z,64.52
2019-02-05T05:37:38.518Z,63.23
2019-02-05T05:40:07.768Z,66.73
2019-02-05T05:42:36.328Z,65.59
2019-02-05T05:45:06.530Z,64.91
2019-02-05T05:47:35.094Z,63.39
2019-02-05T05:50:03.778Z,63.14
2019-02-05T05:52:32.508Z,65.14
2019-02-05T05:55:01.123Z,62.97
2019-02-05T05:57:29.868Z,62.40
2019-02-05T05:59:58.435Z,64.11
2019-02-05T06:02:27.016Z,61.98
2019-02-05T06:04:55.575Z,63.14
2019-02-05T06:07:24.183Z,61.49
2019-02-05T06:09:52.745Z,62.47
2019-02-05T06:12:21.596Z,61.66
2019-02-05T06:14:50.443Z,63.84
2019-02-05T06:17:19.076Z,62.34
2019-02-05T06:19:47.713Z,64.99
2019-02-05T06:22:16.305Z,64.56
2019-02-05T06:24:44.963Z,65.67
2019-02-05T06:27:13.643Z,64.10
2019-02-05T06:29:42.312Z,64.01
2019-02-05T06:32:10.916Z,65.38
2019-02-05T06:34:39.490Z,63.65
2019-02-05T06:37:08.061Z,64.57
2019-02-05T06:39:36.622Z,65.23
2019-02-05T06:42:05.258Z,67.59
2019-02-05T06:44:33.847Z,65.73
2019-02-05T06:47:02.422Z,64.58
2019-02-05T06:49:31.100Z,64.12
2019-02-05T06:51:59.909Z,64.37
2019-02-05T06:54:28.474Z,64.90
2019-02-05T06:56:57.044Z,63.84
2019-02-05T06:59:25.644Z,64.16
2019-02-05T07:01:54.216Z,63.36
2019-02-05T07:04:23.072Z,62.92
2019-02-05T07:06:51.660Z,61.04
2019-02-05T07:09:20.250Z,60.75
2019-02-05T07:11:48.837Z,60.49
2019-02-05T07:14:17.573Z,61.21
2019-02-05T07:16:46.390Z,60.32
2019-02-05T07:19:14.968Z,60.86
2019-02-05T07:21:44.047Z,61.53
2019-02-05T07:24:12.614Z,63.76
2019-02-05T07:26:41.221Z,64.48
2019-02-05T07:29:09.823Z,64.78
2019-02-05T07:31:38.392Z,63.72
2019-02-05T07:34:07.097Z,63.94
2019-02-05T07:36:35.687Z,65.88
2019-02-05T07:39:07.940Z,66.14
2019-02-05T07:41:36.544Z,67.01
2019-02-05T07:44:05.689Z,65.39
2019-02-05T07:46:34.256Z,67.33
2019-02-05T07:49:03.326Z,64.69
2019-02-05T07:51:31.935Z,64.84
2019-02-05T07:54:00.503Z,63.06
2019-02-05T07:56:29.074Z,63.13
2019-02-05T07:59:09.540Z,61.05
2019-02-05T08:01:28.024Z,62.06
2019-02-05T08:03:56.618Z,63.15
2019-02-05T08:06:25.258Z,65.03
2019-02-05T08:08:53.912Z,63.29
2019-02-05T08:11:23.550Z,65.14
2019-02-05T08:13:52.378Z,65.22
2019-02-05T08:16:21.123Z,66.22
2019-02-05T08:18:49.953Z,65.30
2019-02-05T08:21:18.532Z,64.44
2019-02-05T08:23:47.139Z,64.94
2019-02-05T08:26:15.709Z,64.60
2019-02-05T08:28:44.864Z,68.18
2019-02-05T08:31:13.435Z,66.28
2019-02-05T08:33:42.344Z,63.03
2019-02-05T08:36:10.934Z,65.82
2019-02-05T08:38:39.761Z,63.88
2019-02-05T08:41:08.547Z,64.13
2019-02-05T08:43:37.147Z,64.08
2019-02-05T08:46:05.786Z,64.31
2019-02-05T08:48:34.394Z,63.09
2019-02-05T08:51:02.963Z,62.57
2019-02-05T08:53:31.819Z,64.26
2019-02-05T08:56:00.397Z,62.43
2019-02-05T08:58:31.260Z,62.61
2019-02-05T09:00:59.301Z,61.29
2019-02-05T09:03:27.906Z,61.27
2019-02-05T09:05:56.618Z,63.54
2019-02-05T09:08:25.313Z,63.48
2019-02-05T09:10:54.144Z,62.93
2019-02-05T09:13:22.697Z,61.08
2019-02-05T09:15:51.278Z,61.77
2019-02-05T09:18:19.858Z,60.62
2019-02-05T09:20:48.562Z,60.33
2019-02-05T09:23:17.539Z,58.93
2019-02-05T09:25:46.086Z,58.89
2019-02-05T09:28:15.495Z,61.43
2019-02-05T09:30:44.051Z,61.96
2019-02-05T09:33:13.046Z,61.01
2019-02-05T09:35:41.683Z,63.73
2019-02-05T09:38:10.674Z,61.74
2019-02-05T09:40:39.301Z,61.74
2019-02-05T09:43:07.933Z,61.19
2019-02-05T09:45:36.835Z,62.80
2019-02-05T09:48:05.486Z,61.06
2019-02-05T09:50:44.164Z,62.35
2019-02-05T09:53:04.508Z,63.57
2019-02-05T09:55:36.036Z,61.38
2019-02-05T09:58:03.741Z,62.76
2019-02-05T10:00:34.713Z,63.04
2019-02-05T10:03:03.652Z,64.93
2019-02-05T10:05:32.644Z,61.92
2019-02-05T10:08:01.284Z,58.81
2019-02-05T10:10:30.021Z,57.92
2019-02-05T10:12:58.719Z,55.61
2019-02-05T10:15:32.672Z,55.51
2019-02-05T10:18:01.915Z,53.13
2019-02-05T10:20:30.516Z,51.00
2019-02-05T10:23:01.902Z,48.26
2019-02-05T10:25:30.725Z,47.46
2019-02-05T10:27:59.334Z,46.54
2019-02-05T10:30:36.204Z,46.28
2019-02-05T10:33:05.529Z,45.62
2019-02-05T10:35:34.170Z,44.78
2019-02-05T10:38:02.824Z,44.46
2019-02-05T10:40:31.642Z,45.66
2019-02-05T10:43:00.232Z,48.73
2019-02-05T10:45:29.079Z,48.73
2019-02-05T10:47:57.627Z,47.08
2019-02-05T10:50:26.374Z,46.92
2019-02-05T10:52:55.063Z,46.92
2019-02-05T10:55:23.731Z,49.54
2019-02-05T10:57:52.814Z,49.88
2019-02-05T11:00:24.805Z,49.88
2019-02-05T11:02:53.531Z,47.69
2019-02-05T11:05:24.627Z,49.29
2019-02-05T11:07:53.203Z,49.29
2019-02-05T11:10:22.043Z,49.60
2019-02-05T11:12:50.874Z,48.53
2019-02-05T11:15:21.560Z,48.53
2019-02-05T11:17:50.215Z,50.35
2019-02-05T11:20:20.797Z,50.75
2019-02-05T11:22:49.665Z,50.98
2019-02-05T11:25:18.400Z,50.98
2019-02-05T11:27:47.124Z,50.37
2019-02-05T11:30:24.037Z,51.50
2019-02-05T11:32:53.138Z,51.50
2019-02-05T11:35:21.985Z,50.59
2019-02-05T11:37:51.077Z,52.35
2019-02-05T11:40:22.310Z,50.88
2019-02-05T11:42:50.970Z,50.45
2019-02-05T11:45:19.937Z,50.45
2019-02-05T11:47:48.969Z,51.99
2019-02-05T11:50:17.934Z,52.09
2019-02-05T11:52:46.708Z,52.30
2019-02-05T11:55:16.992Z,52.12
2019-02-05T11:57:45.648Z,53.06
2019-02-05T12:00:32.337Z,53.76
2019-02-05T12:02:52.684Z,53.43
2019-02-05T12:05:21.243Z,51.99
2019-02-05T12:07:49.834Z,52.04
2019-02-05T12:10:19.093Z,53.71
2019-02-05T12:12:47.651Z,54.37
2019-02-05T12:15:16.386Z,52.29
2019-02-05T12:17:45.331Z,52.44
2019-02-05T12:20:14.521Z,51.25
2019-02-05T12:22:43.354Z,52.79
2019-02-05T12:25:14.136Z,53.35
2019-02-05T12:27:43.043Z,52.99
2019-02-05T12:30:18.830Z,53.06
2019-02-05T12:32:47.546Z,51.55
2019-02-05T12:35:16.206Z,50.61
2019-02-05T12:37:45.049Z,48.12
2019-02-05T12:40:15.056Z,45.97
2019-02-05T12:42:43.956Z,44.27
2019-02-05T12:45:18.910Z,44.27
2019-02-05T12:47:47.537Z,45.22
2019-02-05T12:50:27.400Z,45.91
2019-02-05T12:53:01.522Z,47.70
2019-02-05T12:55:30.464Z,47.65
2019-02-05T12:57:59.509Z,47.65
2019-02-05T13:00:33.967Z,47.84
2019-02-05T13:03:02.522Z,48.24
2019-02-05T13:05:31.267Z,49.56
2019-02-05T13:08:00.343Z,50.90
2019-02-05T13:10:31.511Z,50.23
2019-02-05T13:13:00.355Z,51.33
2019-02-05T13:15:28.938Z,52.03
2019-02-05T13:17:57.583Z,53.41
2019-02-05T13:20:27.715Z,51.91
2019-02-05T13:22:56.813Z,52.66
2019-02-05T13:25:26.803Z,51.91
2019-02-05T13:27:55.318Z,52.21
2019-02-05T13:30:25.713Z,53.93
2019-02-05T13:32:54.421Z,53.64
2019-02-05T13:35:23.070Z,52.47
2019-02-05T13:37:52.095Z,53.16
2019-02-05T13:40:22.621Z,54.15
2019-02-05T13:42:51.527Z,54.43
2019-02-05T13:45:22.632Z,53.24
2019-02-05T13:47:51.290Z,54.47
2019-02-05T13:50:32.595Z,54.71
2019-02-05T13:52:52.322Z,53.09
2019-02-05T13:55:23.029Z,54.29
2019-02-05T13:57:52.437Z,53.95
2019-02-05T14:00:30.496Z,55.39
2019-02-05T14:02:59.126Z,53.61
2019-02-05T14:05:27.969Z,53.73
2019-02-05T14:07:56.563Z,53.22
2019-02-05T14:10:27.595Z,53.53
2019-02-05T14:12:56.267Z,55.66
2019-02-05T14:15:26.655Z,55.96
2019-02-05T14:17:55.369Z,54.95
2019-02-05T14:20:24.362Z,54.88
2019-02-05T14:22:52.942Z,54.55
2019-02-05T14:25:21.708Z,52.85
2019-02-05T14:27:50.354Z,54.61
2019-02-05T14:30:40.417Z,54.23
2019-02-05T14:33:09.089Z,52.91
2019-02-05T14:35:37.826Z,54.03
2019-02-05T14:38:07.979Z,54.17
2019-02-05T14:40:36.630Z,53.79
2019-02-05T14:43:06.072Z,55.31
2019-02-05T14:45:34.815Z,55.00
2019-02-05T14:48:03.922Z,54.75
2019-02-05T14:50:33.614Z,56.57
2019-02-05T14:53:02.733Z,55.22
2019-02-05T14:55:31.390Z,55.69
2019-02-05T14:58:00.177Z,55.48
2019-02-05T15:00:30.616Z,54.13
2019-02-05T15:03:01.947Z,53.25
2019-02-05T15:05:29.850Z,53.70
2019-02-05T15:07:58.722Z,54.57
2019-02-05T15:10:27.479Z,54.23
2019-02-05T15:12:56.115Z,54.99
2019-02-05T15:15:24.974Z,54.27
2019-02-05T15:17:53.920Z,55.22
2019-02-05T15:20:27.961Z,54.24
2019-02-05T15:22:56.602Z,54.02
2019-02-05T15:25:25.257Z,54.99
2019-02-05T15:27:55.417Z,54.82
2019-02-05T15:30:26.862Z,54.92
2019-02-05T15:33:07.154Z,54.71
2019-02-05T15:35:35.775Z,55.75
2019-02-05T15:38:04.453Z,55.29
2019-02-05T15:40:33.144Z,53.97
2019-02-05T15:43:02.068Z,54.26
2019-02-05T15:45:30.729Z,54.68
2019-02-05T15:47:59.301Z,54.68
2019-02-05T15:50:27.943Z,54.83
2019-02-05T15:52:56.552Z,55.16
2019-02-05T15:55:25.196Z,54.47
2019-02-05T15:57:53.770Z,54.97
2019-02-05T16:00:22.654Z,54.99
2019-02-05T16:02:51.314Z,54.02
2019-02-05T16:05:20.044Z,55.38
2019-02-05T16:07:48.835Z,55.10
2019-02-05T16:10:17.678Z,54.83
2019-02-05T16:12:46.399Z,56.23
2019-02-05T16:15:15.457Z,55.14
2019-02-05T16:17:45.565Z,55.89
2019-02-05T16:20:14.335Z,55.98
2019-02-05T16:22:42.932Z,57.90
2019-02-05T16:25:11.869Z,57.11
2019-02-05T16:27:40.630Z,57.71
2019-02-05T16:30:13.090Z,57.25
2019-02-05T16:32:41.644Z,56.80
2019-02-05T16:35:10.578Z,57.98
2019-02-05T16:37:39.475Z,58.35
2019-02-05T16:40:12.865Z,59.01
2019-02-05T16:42:41.444Z,58.37
2019-02-05T16:45:12.773Z,58.45
2019-02-05T16:47:41.726Z,58.76
2019-02-05T16:50:14.401Z,58.94
2019-02-05T16:52:43.148Z,58.11
2019-02-05T16:55:12.820Z,58.54
2019-02-05T16:57:41.378Z,59.90
2019-02-05T17:00:22.974Z,59.93
2019-02-05T17:02:51.860Z,60.03
2019-02-05T17:05:22.198Z,60.25
2019-02-05T17:07:50.916Z,59.80
2019-02-05T17:10:21.224Z,60.78
2019-02-05T17:12:50.949Z,60.92
2019-02-05T17:15:20.168Z,60.97
2019-02-05T17:17:48.893Z,62.26
2019-02-05T17:20:20.914Z,61.21
2019-02-05T17:22:49.981Z,60.73
2019-02-05T17:25:19.665Z,59.78
2019-02-05T17:27:48.539Z,59.60
2019-02-05T17:30:21.973Z,59.87
2019-02-05T17:32:50.677Z,59.72
2019-02-05T17:35:19.751Z,60.31
2019-02-05T17:37:48.643Z,60.43
2019-02-05T17:40:18.979Z,61.07
2019-02-05T17:42:47.918Z,60.30
2019-02-05T17:45:18.795Z,60.27
2019-02-05T17:47:47.618Z,60.14
2019-02-05T17:50:16.307Z,60.29
2019-02-05T17:52:44.875Z,60.61
2019-02-05T17:55:13.889Z,60.68
2019-02-05T17:57:42.521Z,61.56
2019-02-05T18:00:15.450Z,60.91
2019-02-05T18:02:51.386Z,61.37
2019-02-05T18:05:15.225Z,62.80
2019-02-05T18:07:43.945Z,61.90
2019-02-05T18:10:14.540Z,62.21
2019-02-05T18:12:43.135Z,61.30
2019-02-05T18:15:15.126Z,61.20
2019-02-05T18:17:43.761Z,61.49
2019-02-05T18:20:12.471Z,61.34
2019-02-05T18:22:41.375Z,60.86
2019-02-05T18:25:11.528Z,60.88
2019-02-05T18:27:40.175Z,61.60
2019-02-05T18:30:18.441Z,62.20
2019-02-05T18:32:47.168Z,62.30
2019-02-05T18:35:16.409Z,62.78
2019-02-05T18:37:45.512Z,61.38
2019-02-05T18:40:15.129Z,61.51
2019-02-05T18:42:43.783Z,61.34
2019-02-05T18:45:13.755Z,61.17
2019-02-05T18:47:42.506Z,61.77
2019-02-05T18:50:14.158Z,62.25
2019-02-05T18:52:43.433Z,62.47
2019-02-05T18:55:12.146Z,61.99
2019-02-05T18:57:40.846Z,62.34
2019-02-05T19:00:23.945Z,61.90
2019-02-05T19:02:52.706Z,62.48
2019-02-05T19:05:21.884Z,62.52
2019-02-05T19:07:50.456Z,63.09
2019-02-05T19:10:20.954Z,62.12
2019-02-05T19:12:49.960Z,62.91
2019-02-05T19:15:20.690Z,63.04
2019-02-05T19:17:49.483Z,62.77
2019-02-05T19:20:18.744Z,62.54
2019-02-05T19:22:47.544Z,65.29
2019-02-05T19:25:32.555Z,62.53
2019-02-05T19:28:01.169Z,62.07
2019-02-05T19:30:31.095Z,62.00
2019-02-05T19:33:00.076Z,61.26
2019-02-05T19:35:28.670Z,61.74
2019-02-05T19:37:57.237Z,61.87
2019-02-05T19:40:25.833Z,61.86
2019-02-05T19:42:54.393Z,61.37
2019-02-05T19:45:42.445Z,61.85
2019-02-05T19:48:17.654Z,62.38
2019-02-05T19:50:46.630Z,62.24
2019-02-05T19:53:15.199Z,61.93
2019-02-05T19:55:43.987Z,62.22
2019-02-05T19:58:12.659Z,63.12
2019-02-05T20:00:41.239Z,62.10
2019-02-05T20:03:10.210Z,61.81
2019-02-05T20:05:39.103Z,62.18
2019-02-05T20:08:07.807Z,62.96
2019-02-05T20:10:36.426Z,62.31
2019-02-05T20:13:05.257Z,61.94
2019-02-05T20:15:33.838Z,61.47
2019-02-05T20:18:02.643Z,61.95
2019-02-05T20:20:31.795Z,61.98
2019-02-05T20:23:00.371Z,61.89
2019-02-05T20:25:28.962Z,62.66
2019-02-05T20:27:57.901Z,63.70
2019-02-05T20:30:26.841Z,62.82
2019-02-05T20:32:55.445Z,62.67
2019-02-05T20:35:24.199Z,65.03
2019-02-05T20:37:53.249Z,65.36
2019-02-05T20:40:22.044Z,63.27
2019-02-05T20:42:50.777Z,62.69
2019-02-05T20:45:19.434Z,62.39
2019-02-05T20:47:48.095Z,62.24
2019-02-05T20:50:16.708Z,62.28
2019-02-05T20:52:45.364Z,64.87
2019-02-05T20:55:14.884Z,63.41
2019-02-05T20:57:43.691Z,64.00
2019-02-05T21:00:15.479Z,62.73
2019-02-05T21:02:44.086Z,63.42
2019-02-05T21:05:14.017Z,64.63
2019-02-05T21:07:42.679Z,64.87
2019-02-05T21:10:14.291Z,64.68
2019-02-05T21:12:43.183Z,63.40
2019-02-05T21:15:12.229Z,63.96
2019-02-05T21:17:40.997Z,63.48
2019-02-05T21:20:12.086Z,65.02
2019-02-05T21:22:40.697Z,68.63
2019-02-05T21:25:11.159Z,64.79
2019-02-05T21:27:41.850Z,63.03
2019-02-05T21:30:13.274Z,64.50
2019-02-05T21:32:41.869Z,64.66
2019-02-05T21:35:10.602Z,63.66
2019-02-05T21:37:39.272Z,63.20
2019-02-05T21:40:11.042Z,63.37
2019-02-05T21:42:39.809Z,63.62
2019-02-05T21:45:10.782Z,63.45
2019-02-05T21:47:39.329Z,62.66
2019-02-05T21:50:10.522Z,62.20
2019-02-05T21:52:39.053Z,62.45
2019-02-05T21:55:09.309Z,63.15
2019-02-05T21:57:38.277Z,62.69
2019-02-05T22:00:21.616Z,62.29
2019-02-05T22:02:50.224Z,62.19
2019-02-05T22:05:18.900Z,61.43
2019-02-05T22:07:47.419Z,61.28
2019-02-05T22:10:16.651Z,61.29
2019-02-05T22:12:45.616Z,61.44
2019-02-05T22:15:14.774Z,62.27
2019-02-05T22:17:43.506Z,61.88
2019-02-05T22:20:14.632Z,61.86
2019-02-05T22:22:43.190Z,61.56
2019-02-05T22:25:17.553Z,61.57
2019-02-05T22:27:46.134Z,61.88
2019-02-05T22:30:17.440Z,62.23
2019-02-05T22:32:46.050Z,62.49
2019-02-05T22:35:14.859Z,62.83
2019-02-05T22:37:43.857Z,62.35
2019-02-05T22:40:12.928Z,62.85
2019-02-05T22:42:41.520Z,62.51
2019-02-05T22:45:11.066Z,62.42
2019-02-05T22:47:39.669Z,62.92
2019-02-05T22:50:11.656Z,62.81
2019-02-05T22:52:40.334Z,62.68
2019-02-05T22:55:09.278Z,61.96
2019-02-05T22:57:37.863Z,62.31
2019-02-05T23:00:21.283Z,62.01
2019-02-05T23:02:49.862Z,62.33
2019-02-05T23:05:49.571Z,62.41
2019-02-05T23:08:18.140Z,62.08
2019-02-05T23:11:05.840Z,62.31
2019-02-05T23:13:35.118Z,62.22
2019-02-05T23:16:03.768Z,62.33
2019-02-05T23:18:32.424Z,62.23
2019-02-05T23:21:01.331Z,62.09
2019-02-05T23:23:29.993Z,61.85
2019-02-05T23:25:58.571Z,62.50
2019-02-05T23:28:27.150Z,62.58
2019-02-05T23:30:55.719Z,62.47
2019-02-05T23:33:24.404Z,66.21
2019-02-05T23:35:52.969Z,63.98
2019-02-05T23:38:21.572Z,65.34
2019-02-05T23:40:50.129Z,64.30
2019-02-05T23:43:19.031Z,63.96
2019-02-05T23:46:00.998Z,64.19
2019-02-05T23:48:18.191Z,62.58
2019-02-05T23:50:46.778Z,61.36
2019-02-05T23:53:15.369Z,61.38
2019-02-05T23:55:44.042Z,61.26
2019-02-05T23:58:12.714Z,61.32
